Flight Track Log - Related Links

Times and Time Zones

All times are in EDT time to prevent confusion due to time zone crossing. See the N92EJ flight status page for this flight to view local times or setup timezone preferences in your user account.

Time Position Orientation Groundspeed Altitude Reporting Facility
EDT Latitude Longitude Course Direction KTS MPH feet Rate Location/Type
Tue 11:58:07 AM 38.7264 -104.5758 111° Southeast 170 196 13,500  Level Denver Center
Tue 11:59:09 AM 38.7094 -104.5108 108° East 171 197 13,400 -96 Descending Denver Center
Tue 12:00:12 PM 38.6931 -104.4556 111° Southeast 172 198 13,300 -96 Descending Denver Center
Tue 12:01:14 PM 38.6747 -104.3908 110° East 173 199 13,200 -97 Descending Denver Center
Tue 12:02:00 PM 38.6990 -104.3194 111° Southeast  Level Estimated
Tue 12:02:16 PM 38.6606 -104.3339 108° East 175 201 13,100  Level Denver Center
Tue 12:03:00 PM 38.6800 -104.2565 111° Southeast  Level FlightAware Approximate
Tue 12:03:18 PM 38.6411 -104.2686 111° Southeast 175 201 12,600  Level Denver Center
Tue 12:04:20 PM 38.6253 -104.2097 109° East 180 207 12,200 -387 Descending Denver Center
Tue 12:05:22 PM 38.6103 -104.1522 108° East 179 206 11,800 -339 Descending Denver Center
Tue 12:06:24 PM 38.5917 -104.0822 109° East 185 213 11,500 -290 Descending Denver Center
Tue 12:08:00 PM 38.5911 -103.9656 111° Southeast  Level FlightAware Approximate
Tue 12:15:00 PM 38.4570 -103.5266 111° Southeast  Level FlightAware Approximate
Tue 12:16:00 PM 38.4377 -103.4641 111° Southeast  Level FlightAware Approximate
Tue 12:17:00 PM 38.4194 -103.4010 110° East  Level FlightAware Approximate
Tue 12:18:00 PM 38.4013 -103.3379 110° East  Level FlightAware Approximate
Tue 12:19:00 PM 38.3832 -103.2748 110° East  Level FlightAware Approximate
Tue 12:20:00 PM 38.3651 -103.2117 110° East  Level FlightAware Approximate
Tue 12:21:00 PM 38.3470 -103.1486 110° East  Level FlightAware Approximate
Tue 12:22:00 PM 38.3288 -103.0856 110° East  Level FlightAware Approximate
Tue 12:23:00 PM 38.3106 -103.0226 110° East  Level FlightAware Approximate
Tue 12:24:00 PM 38.2923 -102.9597 110° East  Level FlightAware Approximate
Tue 12:25:00 PM 38.2741 -102.8967 110° East  Level FlightAware Approximate
Tue 12:26:00 PM 38.2557 -102.8338 110° East  Level FlightAware Approximate
Tue 12:27:00 PM 38.2374 -102.7710 110° East  Level FlightAware Approximate
Tue 12:28:00 PM 38.2190 -102.7082 110° East  Level FlightAware Approximate
Tue 12:29:00 PM 38.2006 -102.6453 110° East  Level FlightAware Approximate
Tue 12:30:00 PM 38.1821 -102.5826 110° East  Level FlightAware Approximate
Tue 12:31:00 PM 38.1637 -102.5199 111° Southeast  Level FlightAware Approximate
Tue 12:32:00 PM 38.1451 -102.4572 111° Southeast  Level FlightAware Approximate
Tue 12:33:00 PM 38.1266 -102.3945 111° Southeast  Level FlightAware Approximate
Tue 12:34:00 PM 38.1080 -102.3318 111° Southeast  Level FlightAware Approximate
Tue 12:35:00 PM 38.0894 -102.2692 111° Southeast  Level FlightAware Approximate
Tue 12:36:00 PM 38.0707 -102.2066 111° Southeast  Level FlightAware Approximate
Tue 12:37:00 PM 38.0521 -102.1441 111° Southeast  Level FlightAware Approximate
Tue 12:38:00 PM 38.0333 -102.0816 111° Southeast  Level FlightAware Approximate
Tue 12:39:00 PM 38.0146 -102.0191 111° Southeast  Level FlightAware Approximate
Tue 12:40:00 PM 37.9958 -101.9567 111° Southeast  Level FlightAware Approximate
Tue 12:41:00 PM 37.9770 -101.8942 111° Southeast  Level FlightAware Approximate
Tue 12:42:00 PM 37.9581 -101.8319 111° Southeast  Level FlightAware Approximate
Tue 12:43:00 PM 37.9393 -101.7695 111° Southeast  Level FlightAware Approximate
Tue 12:44:00 PM 37.9193 -101.7077 113° Southeast  Level FlightAware Approximate
Tue 12:45:00 PM 37.8989 -101.6462 113° Southeast  Level FlightAware Approximate
Tue 12:46:00 PM 37.8784 -101.5847 113° Southeast  Level FlightAware Approximate
Tue 12:47:00 PM 37.8579 -101.5233 113° Southeast  Level FlightAware Approximate
Tue 12:48:00 PM 37.8373 -101.4619 113° Southeast  Level FlightAware Approximate
Tue 12:49:00 PM 37.8186 -101.3996 110° East  Level FlightAware Approximate
Tue 12:50:00 PM 37.8002 -101.3371 110° East  Level FlightAware Approximate
Tue 12:51:00 PM 37.7818 -101.2746 110° East  Level FlightAware Approximate
Tue 12:52:00 PM 37.7635 -101.2122 110° East  Level FlightAware Approximate
Tue 12:53:00 PM 37.7448 -101.1499 111° Southeast  Level FlightAware Approximate
Tue 12:54:00 PM 37.7255 -101.0879 111° Southeast  Level FlightAware Approximate
Tue 12:55:00 PM 37.7061 -101.0260 112° Southeast  Level FlightAware Approximate
Tue 12:56:00 PM 37.6868 -100.9641 112° Southeast  Level FlightAware Approximate
Tue 12:57:00 PM 37.6674 -100.9022 112° Southeast  Level FlightAware Approximate
Tue 12:58:00 PM 37.6479 -100.8404 112° Southeast  Level FlightAware Approximate
Tue 12:59:00 PM 37.6284 -100.7786 112° Southeast  Level FlightAware Approximate
Tue 01:00:00 PM 37.6090 -100.7168 112° Southeast  Level FlightAware Approximate
Tue 01:01:00 PM 37.5894 -100.6551 112° Southeast  Level FlightAware Approximate
Tue 01:02:00 PM 37.5699 -100.5934 112° Southeast  Level FlightAware Approximate
Tue 01:03:00 PM 37.5496 -100.5321 113° Southeast  Level FlightAware Approximate
Tue 01:04:00 PM 37.5293 -100.4708 113° Southeast  Level FlightAware Approximate
Tue 01:05:00 PM 37.5089 -100.4096 113° Southeast  Level FlightAware Approximate
Tue 01:06:00 PM 37.4884 -100.3484 113° Southeast  Level FlightAware Approximate
Tue 01:07:00 PM 37.4679 -100.2872 113° Southeast  Level FlightAware Approximate
Tue 01:08:00 PM 37.4474 -100.2261 113° Southeast  Level FlightAware Approximate
Tue 01:09:00 PM 37.4269 -100.1650 113° Southeast  Level FlightAware Approximate
Tue 01:10:00 PM 37.4063 -100.1040 113° Southeast  Level FlightAware Approximate
Tue 01:11:00 PM 37.3857 -100.0430 113° Southeast  Level FlightAware Approximate
Tue 01:12:00 PM 37.3651 -99.9820 113° Southeast  Level FlightAware Approximate
Tue 01:13:00 PM 37.3445 -99.9211 113° Southeast  Level FlightAware Approximate
Tue 01:14:00 PM 37.3238 -99.8601 113° Southeast  Level FlightAware Approximate
Tue 01:15:00 PM 37.3030 -99.7993 113° Southeast  Level FlightAware Approximate
Tue 01:16:00 PM 37.2823 -99.7384 113° Southeast  Level FlightAware Approximate
Tue 01:17:00 PM 37.2615 -99.6776 113° Southeast  Level FlightAware Approximate
Tue 01:18:00 PM 37.2407 -99.6168 113° Southeast  Level FlightAware Approximate
Tue 01:19:00 PM 37.2198 -99.5561 113° Southeast  Level FlightAware Approximate
Tue 01:20:00 PM 37.1990 -99.4954 113° Southeast  Level FlightAware Approximate
Tue 01:21:00 PM 37.1786 -99.4344 111° Southeast  Level FlightAware Approximate
Tue 01:22:00 PM 37.1597 -99.3727 111° Southeast  Level FlightAware Approximate
Tue 01:23:00 PM 37.1408 -99.3110 111° Southeast  Level FlightAware Approximate
Tue 01:24:00 PM 37.1219 -99.2494 111° Southeast  Level FlightAware Approximate
Tue 01:25:00 PM 37.1029 -99.1878 111° Southeast  Level FlightAware Approximate
Tue 01:26:00 PM 37.0839 -99.1262 111° Southeast  Level FlightAware Approximate
Tue 01:27:00 PM 37.0649 -99.0646 111° Southeast  Level FlightAware Approximate
Tue 01:28:00 PM 37.0454 -99.0033 113° Southeast  Level FlightAware Approximate
Tue 01:29:00 PM 37.0246 -98.9427 113° Southeast  Level FlightAware Approximate
Tue 01:30:00 PM 37.0037 -98.8822 113° Southeast  Level FlightAware Approximate
Tue 01:31:00 PM 36.9828 -98.8216 113° Southeast  Level FlightAware Approximate
Tue 01:32:00 PM 36.9618 -98.7612 113° Southeast  Level FlightAware Approximate
Tue 01:33:00 PM 36.9408 -98.7007 113° Southeast  Level FlightAware Approximate
Tue 01:34:00 PM 36.9198 -98.6403 113° Southeast  Level FlightAware Approximate
Tue 01:35:00 PM 36.8988 -98.5799 113° Southeast  Level FlightAware Approximate
Tue 01:36:00 PM 36.8786 -98.5191 113° Southeast  Level FlightAware Approximate
Tue 01:37:00 PM 36.8584 -98.4583 113° Southeast  Level FlightAware Approximate
Tue 01:38:00 PM 36.8381 -98.3976 113° Southeast  Level FlightAware Approximate
Tue 01:39:00 PM 36.8167 -98.3374 114° Southeast  Level FlightAware Approximate
Tue 01:40:00 PM 36.7951 -98.2775 114° Southeast  Level FlightAware Approximate
Tue 01:41:00 PM 36.7734 -98.2175 114° Southeast  Level FlightAware Approximate
Tue 01:42:00 PM 36.7516 -98.1577 114° Southeast  Level FlightAware Approximate
Tue 01:43:00 PM 36.7299 -98.0978 114° Southeast  Level FlightAware Approximate
Tue 01:44:00 PM 36.7080 -98.0380 114° Southeast  Level FlightAware Approximate
Tue 01:45:00 PM 36.6862 -97.9782 114° Southeast  Level FlightAware Approximate
Tue 01:46:00 PM 36.6644 -97.9185 115° Southeast  Level FlightAware Approximate
Tue 01:47:00 PM 36.6425 -97.8587 115° Southeast  Level FlightAware Approximate
Tue 01:48:00 PM 36.6205 -97.7991 115° Southeast  Level FlightAware Approximate
Tue 01:49:00 PM 36.5986 -97.7394 115° Southeast  Level FlightAware Approximate
Tue 01:50:00 PM 36.5766 -97.6798 115° Southeast  Level FlightAware Approximate
Tue 01:51:00 PM 36.5546 -97.6202 115° Southeast  Level FlightAware Approximate
Tue 01:52:00 PM 36.5326 -97.5607 115° Southeast  Level FlightAware Approximate
Tue 01:53:00 PM 36.5105 -97.5012 115° Southeast  Level FlightAware Approximate
Tue 01:54:00 PM 36.4884 -97.4417 115° Southeast  Level FlightAware Approximate
Tue 01:55:00 PM 36.4663 -97.3823 114° Southeast  Level FlightAware Approximate
Tue 01:56:00 PM 36.4450 -97.3224 114° Southeast  Level FlightAware Approximate
Tue 01:57:00 PM 36.4237 -97.2625 114° Southeast  Level FlightAware Approximate
Tue 01:58:00 PM 36.4023 -97.2027 114° Southeast  Level FlightAware Approximate
Tue 01:59:00 PM 36.3810 -97.1429 114° Southeast  Level FlightAware Approximate
Tue 02:00:00 PM 36.3595 -97.0832 114° Southeast  Level FlightAware Approximate
Tue 02:01:00 PM 36.3381 -97.0234 114° Southeast  Level FlightAware Approximate
Tue 02:02:00 PM 36.3166 -96.9637 114° Southeast  Level FlightAware Approximate
Tue 02:03:00 PM 36.2951 -96.9041 114° Southeast  Level FlightAware Approximate
Tue 02:04:00 PM 36.2736 -96.8444 114° Southeast  Level FlightAware Approximate
Tue 02:05:00 PM 36.2520 -96.7848 114° Southeast  Level FlightAware Approximate
Tue 02:06:00 PM 36.2304 -96.7253 114° Southeast  Level FlightAware Approximate
Tue 02:07:00 PM 36.2088 -96.6657 114° Southeast  Level FlightAware Approximate
Tue 02:08:00 PM 36.1872 -96.6062 114° Southeast  Level FlightAware Approximate
Tue 02:09:00 PM 36.1654 -96.5468 115° Southeast  Level FlightAware Approximate
Tue 02:10:00 PM 36.1428 -96.4879 115° Southeast  Level FlightAware Approximate
Tue 02:11:00 PM 36.1201 -96.4290 115° Southeast  Level FlightAware Approximate
Tue 02:12:00 PM 36.0974 -96.3702 116° Southeast  Level FlightAware Approximate
Tue 02:13:00 PM 36.0747 -96.3114 116° Southeast  Level FlightAware Approximate
Tue 02:14:00 PM 36.0520 -96.2526 116° Southeast  Level FlightAware Approximate
Tue 02:15:00 PM 36.0292 -96.1939 116° Southeast  Level FlightAware Approximate
Tue 02:16:00 PM 36.0064 -96.1352 116° Southeast  Level FlightAware Approximate
Tue 02:17:00 PM 35.9835 -96.0766 116° Southeast  Level FlightAware Approximate
Tue 02:18:00 PM 35.9609 -96.0178 115° Southeast  Level FlightAware Approximate
Tue 02:19:00 PM 35.9389 -95.9587 115° Southeast  Level FlightAware Approximate
Tue 02:20:00 PM 35.9168 -95.8996 115° Southeast  Level FlightAware Approximate
Tue 02:21:00 PM 35.8948 -95.8406 115° Southeast  Level FlightAware Approximate
Tue 02:22:00 PM 35.8727 -95.7816 115° Southeast  Level FlightAware Approximate
Tue 02:23:00 PM 35.8506 -95.7226 115° Southeast  Level FlightAware Approximate
Tue 02:24:00 PM 35.8284 -95.6637 115° Southeast  Level FlightAware Approximate
Tue 02:25:00 PM 35.8062 -95.6048 115° Southeast  Level FlightAware Approximate
Tue 02:26:00 PM 35.7840 -95.5459 115° Southeast  Level FlightAware Approximate
Tue 02:27:00 PM 35.7667 -95.4857 90° East  Level FlightAware Approximate
Tue 02:28:00 PM 35.7454 -95.4265 115° Southeast  Level FlightAware Approximate
Tue 02:29:00 PM 35.7234 -95.3676 115° Southeast  Level FlightAware Approximate
Tue 02:30:00 PM 35.7013 -95.3087 115° Southeast  Level FlightAware Approximate
Tue 02:31:00 PM 35.6792 -95.2499 115° Southeast  Level FlightAware Approximate
Tue 02:32:00 PM 35.6573 -95.2000 180° South  Level FlightAware Approximate
Tue 02:33:00 PM 35.6315 -95.1490 114° Southeast  Level FlightAware Approximate
Tue 02:34:00 PM 35.6100 -95.0898 114° Southeast  Level FlightAware Approximate
Tue 02:35:00 PM 35.5885 -95.0307 114° Southeast  Level FlightAware Approximate
Tue 02:36:00 PM 35.5716 -94.9706 116° Southeast  Level FlightAware Approximate
Tue 02:37:00 PM 35.5484 -94.9125 116° Southeast  Level FlightAware Approximate
Tue 02:38:00 PM 35.5251 -94.8545 116° Southeast  Level FlightAware Approximate
Tue 02:39:00 PM 35.5024 -94.7961 115° Southeast  Level FlightAware Approximate
Tue 02:40:00 PM 35.4800 -94.7375 115° Southeast  Level FlightAware Approximate
Tue 02:41:00 PM 35.4576 -94.6790 115° Southeast  Level FlightAware Approximate
Tue 02:42:00 PM 35.4351 -94.6206 115° Southeast  Level FlightAware Approximate
Tue 02:43:00 PM 35.4126 -94.5621 115° Southeast  Level FlightAware Approximate
Tue 02:44:00 PM 35.3901 -94.5037 115° Southeast  Level FlightAware Approximate
Tue 02:45:00 PM 35.3675 -94.4453 115° Southeast  Level FlightAware Approximate
Tue 02:46:00 PM 35.3439 -94.3877 121° Southeast  Level FlightAware Approximate
Tue 02:47:00 PM 35.3333 -94.3667 121° Southeast  Level FlightAware Approximate
Tue 02:48:00 PM 35.3366 -94.3674 121° Southeast  Level Estimated
Tue 02:49:00 PM 35.3333 -94.3667 121° Southeast  Level FlightAware Approximate
Tue 02:50:00 PM 35.3366 -94.3674 121° Southeast  Level Estimated
Tue 02:51:00 PM 35.3333 -94.3667 121° Southeast  Level FlightAware Approximate
Tue 02:52:00 PM 35.3366 -94.3674 121° Southeast  Level Estimated
Tue 02:53:00 PM 35.3333 -94.3667 121° Southeast  Level FlightAware Approximate
Tue 02:54:00 PM 35.3366 -94.3674 121° Southeast  Level Estimated
Tue 02:55:00 PM 35.3333 -94.3667 121° Southeast  Level FlightAware Approximate
Tue 02:56:00 PM 35.3366 -94.3674 121° Southeast  Level Estimated
Tue 02:57:00 PM 35.3333 -94.3667 121° Southeast  Level FlightAware Approximate
Tue 02:58:00 PM 35.3366 -94.3674 121° Southeast  Level Estimated
Tue 02:59:00 PM 35.3333 -94.3667 121° Southeast  Level FlightAware Approximate
Tue 03:00:00 PM 35.3366 -94.3674 121° Southeast  Level Estimated
Tue 03:01:00 PM 35.3333 -94.3667 121° Southeast  Level FlightAware Approximate

Login

Don't have an account? Register now (free) for customized features, flight alerts, and more!